Newland, NC

9:01 AM EDT on May 26, 2015 (GMT -0400)
Newland, NC | | Change Station
CLOSE
Current Station
Personal Weather Station
Location: Newland, NC
Elevation: 3684 ft
Nearby Weather Stations

Elev 3684 ft 36.07 °N, 81.92 °W | Updated 10 minutes ago

Overcast
Overcast
61.5 °F
Feels Like 61.5 °F
N
1.1
Wind Variable Wind from NNE

Today
High -- | Low -- °F
--% Chance of Precip.
Yesterday
High -- | Low -- °F
Precip. -- in
6:14 AM 8:35 PM
First Quarter, 58% visible
Pressure 30.37 in
Visibility 4.0 miles
Clouds Overcast 400 ft
Dew Point 61 °F
Humidity 97%
Rainfall 0.20 in
Snow Depth Not available.
UV 1 out of 12
Pollen 1.00 out of 12
Air Quality Not available.
Flu Activity No Activity
METAR KTNB 261255Z AUTO 18006KT 4SM BR OVC004 17/17 A3037 RMK AO2 T01720171

More Conditions Fewer Conditions

Pressure 30.37 in
Visibility 4.0 miles
Clouds Overcast 400 ft
Dew Point 61 °F
Humidity 97%
Rainfall 0.20 in
Snow Depth Not available.
UV 1 out of 12
Pollen 1.00 out of 12
Air Quality Not available.
Flu Activity No Activity
METAR KTNB 261255Z AUTO 18006KT 4SM BR OVC004 17/17 A3037 RMK AO2 T01720171

More Conditions Fewer Conditions

10-Day Weather Forecast

Almanac

Astronomy

May. 26, 2015 Rise Set
Actual Time
Civil Twilight
Nautical Twilight
Astronomical Twilight
Moon
Length of Visible Light
Length of Day
Tomorrow will be .
, % of the Moon is Illuminated

Today's Extremes

State Highs State Lows

Community

WunderPhotos

Upload Photos

1,824,340 photos uploaded!

WunderBlogs® & News

Nearby

Air Quality

  Air Quality AQ Index Pollutant
Not available.

Snow Depth

Station Depth Elevation

Earthquake Activity

City Distance Mag. Time & Date
Minimum magnitude displayed is 2.5.

Coastal Water Temperatures

Place Temperature

Stations

Nearby Weather Stations

Station Location Temp. Windchill Dew Point Humidity Wind Precip. Elev Updated Type